Terminal Aerodrome Forecast
Issued by NWS Lubbock, TX

Home | Current Version | Previous Version | Text Only | Print | Product List | Glossary On
Versions: 1 2 3 4 5 6 7 8 9 10 11 12 13 14 15
000
FTUS44 KLUB 291100
TAFLBB
TAF
KLBB 291120Z 2912/3012 32010KT P6SM FEW200
     FM300200 03012KT P6SM FEW200
     FM300500 04016KT P6SM SCT008 BKN015 OVC030=

USA.gov is the U.S. government's official web portal to all federal, state and local government web resources and services.